createdAt,value
2023-04-02T00:01:02.634Z,7.02
2023-04-02T00:03:44.545Z,7.03
2023-04-02T00:06:45.332Z,7.03
2023-04-02T00:09:14.812Z,7.02
2023-04-02T00:11:44.611Z,7.00
2023-04-02T00:14:29.428Z,6.99
2023-04-02T00:16:58.078Z,6.98
2023-04-02T00:19:36.598Z,6.97
2023-04-02T00:22:07.628Z,6.99
2023-04-02T00:24:34.267Z,6.84
2023-04-02T00:27:00.964Z,6.91
2023-04-02T00:29:27.474Z,6.88
2023-04-02T00:31:54.708Z,6.83
2023-04-02T00:34:23.743Z,6.85
2023-04-02T00:36:51.031Z,6.85
2023-04-02T00:39:29.798Z,6.88
2023-04-02T00:42:04.777Z,6.83
2023-04-02T00:44:38.469Z,6.86
2023-04-02T00:47:31.796Z,6.83
2023-04-02T00:50:05.594Z,6.77
2023-04-02T00:52:32.989Z,6.81
2023-04-02T00:55:37.425Z,6.77
2023-04-02T00:58:15.649Z,6.75
2023-04-02T01:00:49.448Z,6.83
2023-04-02T01:03:19.377Z,6.80
2023-04-02T01:06:15.410Z,6.78
2023-04-02T01:09:05.953Z,6.76
2023-04-02T01:11:55.159Z,6.71
2023-04-02T01:14:37.364Z,6.76
2023-04-02T01:17:19.880Z,6.76
2023-04-02T01:20:01.468Z,6.71
2023-04-02T01:22:48.197Z,6.71
2023-04-02T01:25:24.918Z,6.74
2023-04-02T01:28:08.315Z,6.79
2023-04-02T01:30:36.538Z,6.80
2023-04-02T01:33:05.039Z,6.80
2023-04-02T01:35:36.494Z,6.70
2023-04-02T01:38:08.442Z,6.77
2023-04-02T01:40:54.424Z,6.80
2023-04-02T01:43:49.679Z,6.78
2023-04-02T01:46:31.963Z,6.72
2023-04-02T01:49:02.713Z,6.78
2023-04-02T01:51:33.291Z,6.73
2023-04-02T01:54:03.231Z,6.71
2023-04-02T01:56:30.447Z,6.64
2023-04-02T01:58:58.435Z,6.69
2023-04-02T02:01:32.042Z,6.72
2023-04-02T02:03:59.830Z,6.71
2023-04-02T02:06:26.372Z,6.71
2023-04-02T02:08:57.759Z,6.66
2023-04-02T02:11:28.205Z,6.66
2023-04-02T02:14:20.680Z,6.67
2023-04-02T02:16:48.221Z,6.66
2023-04-02T02:19:42.092Z,6.65
2023-04-02T02:22:14.389Z,6.59
2023-04-02T02:24:42.085Z,6.59
2023-04-02T02:27:23.626Z,6.60
2023-04-02T02:29:53.234Z,6.62
2023-04-02T02:32:23.592Z,6.67
2023-04-02T02:34:59.936Z,6.66
2023-04-02T02:37:33.800Z,6.69
2023-04-02T02:40:03.885Z,6.65
2023-04-02T02:42:54.370Z,6.67
2023-04-02T02:45:26.325Z,6.67
2023-04-02T02:47:55.326Z,6.65
2023-04-02T02:50:31.570Z,6.61
2023-04-02T02:53:00.441Z,6.65
2023-04-02T02:55:36.822Z,6.63
2023-04-02T02:58:09.637Z,6.59
2023-04-02T03:00:37.556Z,6.55
2023-04-02T03:03:22.007Z,6.57
2023-04-02T03:06:02.102Z,6.59
2023-04-02T03:08:41.644Z,6.56
2023-04-02T03:11:49.694Z,6.51
2023-04-02T03:14:31.743Z,6.56
2023-04-02T03:17:14.793Z,6.50
2023-04-02T03:19:48.970Z,6.49
2023-04-02T03:22:24.059Z,6.51
2023-04-02T03:25:05.771Z,6.48
2023-04-02T03:27:39.280Z,6.47
2023-04-02T03:30:39.775Z,6.44
2023-04-02T03:33:38.753Z,6.46
2023-04-02T03:36:14.101Z,6.41
2023-04-02T03:38:51.926Z,6.31
2023-04-02T03:41:29.388Z,6.41
2023-04-02T03:44:00.656Z,6.44
2023-04-02T03:46:49.230Z,6.40
2023-04-02T03:49:34.812Z,6.35
2023-04-02T03:52:13.397Z,6.33
2023-04-02T03:54:40.860Z,6.34
2023-04-02T03:57:23.780Z,6.33
2023-04-02T04:00:08.295Z,6.31
2023-04-02T04:02:42.974Z,6.37
2023-04-02T04:05:22.666Z,6.35
2023-04-02T04:07:53.522Z,6.33
2023-04-02T04:10:25.931Z,6.36
2023-04-02T04:12:56.712Z,6.36
2023-04-02T04:15:42.843Z,6.33
2023-04-02T04:18:21.580Z,6.41
2023-04-02T04:20:57.237Z,6.37
2023-04-02T04:23:32.719Z,6.40
2023-04-02T04:26:09.858Z,6.39
2023-04-02T04:28:48.893Z,6.37
2023-04-02T04:31:22.833Z,6.37
2023-04-02T04:34:03.061Z,6.37
2023-04-02T04:36:36.660Z,6.36
2023-04-02T04:39:14.523Z,6.39
2023-04-02T04:41:43.037Z,6.33
2023-04-02T04:44:23.753Z,6.40
2023-04-02T04:47:01.906Z,6.35
2023-04-02T04:49:35.929Z,6.41
2023-04-02T04:52:14.473Z,6.42
2023-04-02T04:54:41.133Z,6.37
2023-04-02T04:57:22.237Z,6.33
2023-04-02T04:59:57.256Z,6.38
2023-04-02T05:02:30.239Z,6.35
2023-04-02T05:04:56.971Z,6.37
2023-04-02T05:07:29.357Z,6.35
2023-04-02T05:09:55.798Z,6.33
2023-04-02T05:12:43.684Z,6.36
2023-04-02T05:15:23.365Z,6.41
2023-04-02T05:18:02.071Z,6.45
2023-04-02T05:20:58.909Z,6.44
2023-04-02T05:23:30.958Z,6.46
2023-04-02T05:26:00.367Z,6.40
2023-04-02T05:28:40.624Z,6.35
2023-04-02T05:31:12.201Z,6.39
2023-04-02T05:33:40.485Z,6.44
2023-04-02T05:36:12.717Z,6.45
2023-04-02T05:38:44.921Z,6.40
2023-04-02T05:41:38.271Z,6.42
2023-04-02T05:44:29.856Z,6.45
2023-04-02T05:47:06.665Z,6.46
2023-04-02T05:49:32.977Z,6.46
2023-04-02T05:52:03.427Z,6.49
2023-04-02T05:54:44.040Z,6.48
2023-04-02T05:57:17.108Z,6.43
2023-04-02T05:59:49.755Z,6.47
2023-04-02T06:02:33.452Z,6.48
2023-04-02T06:05:06.559Z,6.48
2023-04-02T06:07:41.944Z,6.50
2023-04-02T06:10:24.624Z,6.50
2023-04-02T06:13:03.428Z,6.47
2023-04-02T06:15:32.341Z,6.50
2023-04-02T06:18:00.464Z,6.50
2023-04-02T06:20:27.521Z,6.47
2023-04-02T06:23:02.297Z,6.52
2023-04-02T06:25:33.637Z,6.54
2023-04-02T06:28:03.696Z,6.55
2023-04-02T06:30:37.784Z,6.59
2023-04-02T06:33:05.671Z,6.62
2023-04-02T06:35:35.595Z,6.66
2023-04-02T06:38:06.308Z,6.66
2023-04-02T06:40:38.831Z,6.74
2023-04-02T06:43:14.509Z,6.76
2023-04-02T06:45:43.420Z,6.83
2023-04-02T06:48:19.809Z,6.89
2023-04-02T06:50:59.505Z,6.97
2023-04-02T06:53:46.961Z,7.00
2023-04-02T06:56:19.801Z,7.01
2023-04-02T06:58:46.482Z,7.04
2023-04-02T07:01:23.791Z,7.14
2023-04-02T07:03:50.427Z,7.15
2023-04-02T07:06:19.157Z,7.15
2023-04-02T07:08:45.654Z,7.23
2023-04-02T07:11:20.167Z,7.28
2023-04-02T07:13:47.939Z,7.27
2023-04-02T07:16:17.455Z,7.37
2023-04-02T07:18:44.605Z,7.48
2023-04-02T07:21:11.239Z,7.50
2023-04-02T07:23:37.996Z,7.57
2023-04-02T07:26:05.770Z,7.61
2023-04-02T07:28:32.696Z,7.57
2023-04-02T07:30:59.256Z,7.66
2023-04-02T07:33:28.670Z,7.71
2023-04-02T07:35:57.571Z,7.74
2023-04-02T07:38:24.497Z,7.65
2023-04-02T07:40:50.940Z,7.61
2023-04-02T07:43:17.328Z,7.66
2023-04-02T07:45:43.797Z,7.58
2023-04-02T07:48:14.041Z,7.67
2023-04-02T07:50:40.744Z,7.70
2023-04-02T07:53:08.744Z,7.73
2023-04-02T07:55:35.540Z,7.73
2023-04-02T07:58:03.268Z,7.80
2023-04-02T08:00:29.786Z,7.77
2023-04-02T08:02:56.560Z,7.81
2023-04-02T08:05:23.149Z,7.76
2023-04-02T08:07:57.078Z,7.79
2023-04-02T08:10:23.872Z,7.82
2023-04-02T08:12:50.510Z,7.75
2023-04-02T08:15:17.663Z,7.79
2023-04-02T08:17:44.340Z,7.69
2023-04-02T08:20:22.549Z,7.69
2023-04-02T08:22:50.083Z,7.72
2023-04-02T08:25:17.159Z,7.74
2023-04-02T08:27:46.947Z,7.71
2023-04-02T08:30:14.616Z,7.72
2023-04-02T08:32:41.435Z,7.66
2023-04-02T08:35:10.916Z,7.73
2023-04-02T08:37:38.105Z,7.72
2023-04-02T08:40:07.290Z,7.58
2023-04-02T08:42:42.782Z,7.70
2023-04-02T08:45:43.331Z,7.68
2023-04-02T08:48:11.786Z,7.70
2023-04-02T08:50:41.498Z,7.74
2023-04-02T08:53:22.182Z,7.72
2023-04-02T08:56:05.693Z,7.79
2023-04-02T08:59:03.317Z,7.75
2023-04-02T09:01:34.964Z,7.83
2023-04-02T09:04:05.337Z,7.81
2023-04-02T09:06:34.566Z,7.84
2023-04-02T09:09:01.174Z,7.83
2023-04-02T09:11:36.098Z,7.92
2023-04-02T09:14:10.057Z,7.91
2023-04-02T09:16:42.104Z,7.88
2023-04-02T09:19:40.240Z,7.92
2023-04-02T09:22:16.530Z,7.89
2023-04-02T09:24:42.890Z,7.90
2023-04-02T09:27:24.542Z,8.03
2023-04-02T09:30:03.916Z,8.06
2023-04-02T09:32:50.127Z,8.13
2023-04-02T09:35:26.163Z,8.13
2023-04-02T09:38:15.347Z,8.17
2023-04-02T09:40:51.058Z,8.11
2023-04-02T09:43:38.310Z,8.11
2023-04-02T09:46:13.686Z,8.18
2023-04-02T09:48:58.350Z,8.27
2023-04-02T09:51:31.903Z,8.16
2023-04-02T09:54:04.140Z,8.13
2023-04-02T09:56:32.918Z,8.16
2023-04-02T09:59:07.044Z,8.14
2023-04-02T10:01:35.444Z,8.02
2023-04-02T10:04:03.898Z,8.02
2023-04-02T10:06:31.819Z,7.95
2023-04-02T10:08:59.313Z,7.98
2023-04-02T10:11:45.758Z,7.95
2023-04-02T10:14:21.609Z,7.95
2023-04-02T10:16:55.881Z,7.97
2023-04-02T10:19:34.594Z,8.01
2023-04-02T10:22:06.168Z,7.95
2023-04-02T10:24:32.692Z,7.92
2023-04-02T10:27:37.564Z,7.78
2023-04-02T10:30:19.204Z,7.82
2023-04-02T10:32:54.826Z,7.71
2023-04-02T10:35:44.737Z,7.77
2023-04-02T10:38:27.940Z,7.74
2023-04-02T10:40:59.319Z,7.72
2023-04-02T10:43:50.827Z,7.60
2023-04-02T10:46:32.535Z,7.58
2023-04-02T10:49:23.993Z,7.59
2023-04-02T10:52:09.007Z,7.49
2023-04-02T10:55:04.136Z,7.61
2023-04-02T10:57:36.848Z,7.56
2023-04-02T11:00:15.698Z,7.49
2023-04-02T11:03:02.675Z,7.55
2023-04-02T11:05:40.196Z,7.54
2023-04-02T11:08:21.327Z,7.48
2023-04-02T11:10:57.741Z,7.62
2023-04-02T11:13:36.513Z,7.66
2023-04-02T11:16:03.777Z,7.72
2023-04-02T11:18:38.757Z,7.69
2023-04-02T11:21:54.926Z,7.71
2023-04-02T11:24:33.798Z,7.65
2023-04-02T11:27:14.308Z,7.71
2023-04-02T11:29:53.808Z,7.77
2023-04-02T11:32:20.529Z,7.87
2023-04-02T11:34:49.533Z,7.86
2023-04-02T11:37:34.210Z,7.87
2023-04-02T11:40:10.852Z,7.86
2023-04-02T11:42:48.461Z,7.84
2023-04-02T11:45:23.862Z,7.77
2023-04-02T11:48:02.103Z,7.75
2023-04-02T11:50:40.542Z,7.72
2023-04-02T11:53:14.660Z,7.67
2023-04-02T11:55:46.069Z,7.57
2023-04-02T11:58:22.725Z,7.49
2023-04-02T12:01:30.187Z,7.27
2023-04-02T12:04:26.883Z,7.06
2023-04-02T12:07:38.035Z,7.18
2023-04-02T12:10:19.658Z,7.33
2023-04-02T12:12:46.891Z,7.44
2023-04-02T12:15:32.370Z,7.62
2023-04-02T12:18:17.287Z,7.73
2023-04-02T12:20:50.806Z,7.84
2023-04-02T12:23:32.146Z,7.81
2023-04-02T12:26:01.270Z,7.63
2023-04-02T12:28:29.051Z,7.65
2023-04-02T12:31:13.071Z,7.42
2023-04-02T12:33:40.931Z,7.69
2023-04-02T12:36:17.942Z,7.81
2023-04-02T12:38:56.506Z,7.96
2023-04-02T12:41:32.230Z,8.12
2023-04-02T12:44:00.281Z,8.25
2023-04-02T12:46:28.142Z,8.36
2023-04-02T12:49:05.016Z,8.10
2023-04-02T12:51:34.202Z,7.97
2023-04-02T12:54:01.175Z,7.73
2023-04-02T12:56:27.704Z,7.75
2023-04-02T12:58:54.104Z,7.81
2023-04-02T13:01:27.597Z,7.65
2023-04-02T13:04:14.808Z,7.29
2023-04-02T13:06:48.552Z,7.45
2023-04-02T13:09:35.168Z,7.33
2023-04-02T13:12:02.970Z,7.26
2023-04-02T13:14:30.540Z,7.22
2023-04-02T13:16:57.347Z,7.18
2023-04-02T13:19:34.040Z,7.16
2023-04-02T13:22:02.195Z,7.21
2023-04-02T13:24:33.455Z,6.88
2023-04-02T13:27:01.978Z,6.89
2023-04-02T13:29:30.329Z,6.88
2023-04-02T13:32:02.978Z,6.90
2023-04-02T13:34:30.017Z,6.81
2023-04-02T13:37:00.285Z,6.85
2023-04-02T13:39:27.165Z,6.73
2023-04-02T13:41:59.698Z,6.73
2023-04-02T13:44:34.541Z,6.75
2023-04-02T13:47:01.778Z,6.77
2023-04-02T13:49:28.455Z,6.59
2023-04-02T13:52:03.116Z,6.64
2023-04-02T13:54:49.348Z,6.45
2023-04-02T13:57:15.921Z,6.36
2023-04-02T13:59:42.561Z,6.39
2023-04-02T14:02:15.458Z,6.40
2023-04-02T14:04:48.586Z,6.30
2023-04-02T14:07:38.788Z,6.30
2023-04-02T14:10:40.529Z,6.23
2023-04-02T14:13:28.605Z,6.07
2023-04-02T14:16:11.914Z,6.09
2023-04-02T14:18:50.948Z,6.09
2023-04-02T14:21:31.168Z,6.15
2023-04-02T14:24:17.855Z,5.97
2023-04-02T14:26:50.359Z,6.02
2023-04-02T14:29:31.465Z,5.95
2023-04-02T14:32:14.926Z,5.95
2023-04-02T14:35:26.737Z,5.90
2023-04-02T14:38:20.429Z,5.90
2023-04-02T14:40:51.429Z,5.99
2023-04-02T14:43:27.774Z,5.91
2023-04-02T14:46:06.087Z,5.98
2023-04-02T14:48:54.494Z,5.92
2023-04-02T14:51:37.946Z,5.95
2023-04-02T14:54:12.237Z,5.79
2023-04-02T14:56:49.788Z,5.71
2023-04-02T14:59:25.539Z,5.72
2023-04-02T15:01:58.668Z,5.78
2023-04-02T15:04:52.674Z,5.80
2023-04-02T15:07:24.024Z,5.79
2023-04-02T15:10:02.054Z,5.70
2023-04-02T15:12:35.992Z,5.56
2023-04-02T15:15:24.395Z,5.56
2023-04-02T15:17:58.423Z,5.48
2023-04-02T15:20:25.886Z,5.38
2023-04-02T15:23:01.904Z,5.31
2023-04-02T15:25:43.220Z,5.42
2023-04-02T15:28:12.432Z,5.47
2023-04-02T15:30:44.881Z,5.47
2023-04-02T15:33:54.359Z,5.48
2023-04-02T15:36:41.606Z,5.40
2023-04-02T15:39:22.964Z,5.36
2023-04-02T15:42:25.408Z,5.37
2023-04-02T15:45:10.623Z,5.23
2023-04-02T15:47:52.172Z,5.29
2023-04-02T15:50:44.099Z,5.27
2023-04-02T15:53:45.887Z,5.21
2023-04-02T15:56:26.336Z,5.26
2023-04-02T15:59:08.512Z,5.19
2023-04-02T16:01:47.646Z,5.15
2023-04-02T16:04:23.321Z,5.17
2023-04-02T16:07:12.454Z,5.16
2023-04-02T16:10:18.008Z,5.06
2023-04-02T16:12:51.493Z,5.00
2023-04-02T16:15:24.377Z,4.89
2023-04-02T16:18:01.492Z,4.74
2023-04-02T16:20:34.101Z,4.70
2023-04-02T16:23:07.059Z,4.69
2023-04-02T16:25:59.130Z,4.65
2023-04-02T16:28:39.951Z,4.59
2023-04-02T16:31:37.543Z,4.62
2023-04-02T16:34:24.207Z,4.48
2023-04-02T16:37:19.764Z,4.45
2023-04-02T16:40:29.749Z,4.37
2023-04-02T16:42:59.301Z,4.27
2023-04-02T16:45:48.267Z,4.14
2023-04-02T16:48:33.182Z,4.12
2023-04-02T16:51:12.544Z,4.01
2023-04-02T16:54:02.305Z,3.89
2023-04-02T16:56:36.450Z,3.75
2023-04-02T16:59:09.452Z,3.66
2023-04-02T17:01:59.861Z,3.60
2023-04-02T17:04:53.427Z,3.53
2023-04-02T17:07:28.627Z,3.52
2023-04-02T17:10:14.102Z,3.51
2023-04-02T17:12:52.475Z,3.51
2023-04-02T17:15:28.285Z,3.49
2023-04-02T17:18:00.273Z,3.44
2023-04-02T17:20:27.480Z,3.40
2023-04-02T17:22:56.004Z,3.29
2023-04-02T17:25:33.962Z,3.30
2023-04-02T17:28:02.528Z,3.26
2023-04-02T17:30:41.154Z,3.21
2023-04-02T17:33:13.183Z,3.18
2023-04-02T17:35:39.529Z,3.13
2023-04-02T17:38:30.724Z,3.11
2023-04-02T17:41:23.258Z,3.11
2023-04-02T17:44:00.847Z,3.07
2023-04-02T17:46:53.360Z,3.00
2023-04-02T17:49:37.718Z,2.95
2023-04-02T17:52:18.485Z,2.92
2023-04-02T17:55:07.225Z,2.92
2023-04-02T17:58:01.470Z,2.93
2023-04-02T18:00:41.338Z,2.90
2023-04-02T18:03:31.859Z,2.83
2023-04-02T18:06:06.620Z,2.76
2023-04-02T18:08:42.383Z,2.71
2023-04-02T18:11:27.636Z,2.71
2023-04-02T18:14:00.533Z,2.63
2023-04-02T18:16:32.995Z,2.62
2023-04-02T18:19:14.799Z,2.54
2023-04-02T18:22:00.127Z,2.53
2023-04-02T18:24:49.320Z,2.47
2023-04-02T18:27:21.908Z,2.46
2023-04-02T18:30:06.643Z,2.49
2023-04-02T18:32:47.070Z,2.43
2023-04-02T18:35:16.931Z,2.43
2023-04-02T18:37:43.516Z,2.40
2023-04-02T18:40:30.021Z,2.33
2023-04-02T18:43:10.428Z,2.32
2023-04-02T18:45:52.138Z,2.31
2023-04-02T18:48:28.890Z,2.28
2023-04-02T18:50:55.484Z,2.29
2023-04-02T18:53:24.833Z,2.26
2023-04-02T18:56:02.525Z,2.28
2023-04-02T18:58:40.858Z,2.27
2023-04-02T19:01:13.429Z,2.26
2023-04-02T19:03:46.481Z,2.28
2023-04-02T19:06:22.143Z,2.27
2023-04-02T19:08:55.349Z,2.25
2023-04-02T19:11:29.350Z,2.25
2023-04-02T19:13:59.954Z,2.25
2023-04-02T19:16:45.560Z,2.24
2023-04-02T19:19:20.919Z,2.21
2023-04-02T19:22:03.413Z,2.17
2023-04-02T19:24:59.077Z,2.17
2023-04-02T19:27:44.507Z,2.17
2023-04-02T19:30:48.176Z,2.15
2023-04-02T19:33:33.560Z,2.16
2023-04-02T19:36:15.079Z,2.15
2023-04-02T19:39:13.953Z,2.15
2023-04-02T19:41:56.409Z,2.15
2023-04-02T19:44:23.060Z,2.09
2023-04-02T19:46:51.384Z,2.11
2023-04-02T19:49:28.261Z,2.13
2023-04-02T19:51:55.713Z,2.11
2023-04-02T19:54:22.933Z,2.09
2023-04-02T19:56:50.132Z,2.08
2023-04-02T19:59:18.757Z,2.10
2023-04-02T20:01:46.687Z,2.10
2023-04-02T20:04:14.202Z,2.10
2023-04-02T20:06:41.016Z,2.11
2023-04-02T20:09:08.677Z,2.12
2023-04-02T20:11:37.210Z,2.10
2023-04-02T20:14:04.174Z,2.08
2023-04-02T20:16:31.258Z,2.11
2023-04-02T20:18:58.186Z,2.11
2023-04-02T20:21:24.809Z,2.10
2023-04-02T20:23:54.952Z,2.11
2023-04-02T20:26:22.710Z,2.09
2023-04-02T20:28:49.418Z,2.08
2023-04-02T20:31:18.652Z,2.08
2023-04-02T20:33:45.768Z,2.06
2023-04-02T20:36:15.779Z,2.09
2023-04-02T20:38:43.237Z,2.07
2023-04-02T20:41:10.379Z,2.06
2023-04-02T20:43:40.244Z,2.01
2023-04-02T20:46:09.438Z,2.06
2023-04-02T20:48:37.854Z,2.05
2023-04-02T20:51:07.274Z,2.02
2023-04-02T20:53:35.709Z,2.02
2023-04-02T20:56:29.461Z,1.99
2023-04-02T20:58:55.881Z,1.99
2023-04-02T21:01:28.006Z,1.96
2023-04-02T21:03:57.039Z,1.96
2023-04-02T21:06:25.566Z,1.93
2023-04-02T21:08:52.382Z,1.90
2023-04-02T21:11:19.556Z,1.92
2023-04-02T21:13:46.140Z,1.91
2023-04-02T21:16:20.964Z,1.89
2023-04-02T21:18:49.590Z,1.88
2023-04-02T21:21:16.617Z,1.87
2023-04-02T21:23:44.898Z,1.87
2023-04-02T21:26:17.776Z,1.84
2023-04-02T21:28:45.528Z,1.82
2023-04-02T21:31:18.291Z,1.82
2023-04-02T21:33:50.660Z,1.84
2023-04-02T21:36:23.060Z,1.83
2023-04-02T21:38:58.029Z,1.81
2023-04-02T21:41:30.240Z,1.83
2023-04-02T21:43:58.676Z,1.83
2023-04-02T21:46:27.810Z,1.83
2023-04-02T21:48:56.428Z,1.79
2023-04-02T21:51:25.869Z,1.80
2023-04-02T21:53:55.919Z,1.77
2023-04-02T21:56:25.213Z,1.77
2023-04-02T21:58:52.262Z,1.78
2023-04-02T22:01:27.463Z,1.77
2023-04-02T22:04:00.205Z,1.77
2023-04-02T22:06:29.763Z,1.75
2023-04-02T22:09:01.367Z,1.74
2023-04-02T22:11:30.469Z,1.71
2023-04-02T22:13:57.557Z,1.72
2023-04-02T22:16:27.347Z,1.71
2023-04-02T22:18:56.250Z,1.66
2023-04-02T22:21:23.107Z,1.70
2023-04-02T22:23:49.955Z,1.71
2023-04-02T22:26:18.016Z,1.70
2023-04-02T22:28:44.840Z,1.65
2023-04-02T22:31:22.003Z,1.67
2023-04-02T22:33:48.767Z,1.67
2023-04-02T22:36:16.605Z,1.65
2023-04-02T22:38:43.084Z,1.66
2023-04-02T22:41:18.042Z,1.66
2023-04-02T22:43:45.593Z,1.66
2023-04-02T22:46:14.581Z,1.63
2023-04-02T22:48:42.106Z,1.63
2023-04-02T22:51:10.272Z,1.62
2023-04-02T22:53:38.162Z,1.61
2023-04-02T22:56:13.736Z,1.60
2023-04-02T22:58:41.248Z,1.60
2023-04-02T23:01:12.121Z,1.60
2023-04-02T23:03:39.104Z,1.56
2023-04-02T23:06:11.013Z,1.54
2023-04-02T23:08:38.732Z,1.53
2023-04-02T23:11:14.333Z,1.55
2023-04-02T23:13:40.941Z,1.55
2023-04-02T23:16:10.693Z,1.53
2023-04-02T23:18:38.362Z,1.53
2023-04-02T23:21:06.041Z,1.53
2023-04-02T23:23:33.300Z,1.50
2023-04-02T23:26:12.191Z,1.50
2023-04-02T23:28:39.551Z,1.47
2023-04-02T23:31:08.222Z,1.45
2023-04-02T23:33:35.773Z,1.50
2023-04-02T23:36:10.318Z,1.47
2023-04-02T23:38:36.882Z,1.44
2023-04-02T23:41:03.399Z,1.47
2023-04-02T23:43:30.215Z,1.46
2023-04-02T23:45:56.790Z,1.43
2023-04-02T23:48:23.377Z,1.39
2023-04-02T23:50:49.939Z,1.39
2023-04-02T23:53:16.752Z,1.42
2023-04-02T23:55:43.186Z,1.38
2023-04-02T23:58:09.633Z,1.38
